LICR/REG METAR and TAF weather

Enter ICAO airport designator
Station Type Date Time Source
LICR METAR 2021/10/20 07:50 UTC NOAA

LICR 200750Z AUTO 36006KT 330V030 9999 NCD 21/12 Q1028


Station Type Date Time Source
LICR Decoded METAR 2021/10/20 07:50 UTC NOAA

Reggio Calabria, Italy (LICR) 38-04N 015-39E 21M
Oct 20, 2021 - 03:50 AM EDT / 2021.10.20 0750 UTC
Wind: from the N (360 degrees) at 7 MPH (6 KT) (direction variable):0
Visibility: greater than 7 mile(s):0
Temperature: 69 F (21 C)
Dew Point: 53 F (12 C)
Relative Humidity: 56%
Pressure (altimeter): 30.36 in. Hg (1028 hPa)
ob: LICR 200750Z AUTO 36006KT 330V030 9999 NCD 21/12 Q1028
cycle: 8

Station Type Date Time Source
LICR TAF 2021/10/20 06:25 UTC NOAA

TAF LICR 200500Z 2006/2106 VRB06KT 9999 FEW030

Example: see airport list